Time;durP1;ratioP1;P1;durP2;ratioP2;P2;SDS_P1;SDS_P2;PMS_P1;PMS_P2;Temp;Humidity;BMP_temperature;BMP_pressure;BME280_temperature;BME280_humidity;BME280_pressure;Samples;Min_cycle;Max_cycle;Signal;HPM_P1;HPM_P2
2022/03/02 00:01:15;;;;;;;;;;;;;;;0.84;56.94;98926.44;4416429;32;20343;-77
2022/03/02 00:03:42;;;;;;;;;;;;;;;0.66;57.31;98922.06;4403371;32;19987;-77
2022/03/02 00:06:09;;;;;;;;;;;;;;;0.53;58.06;98913.47;4417213;32;20030;-77
2022/03/02 00:08:36;;;;;;;;;;;;;;;0.72;57.25;98911.94;4416796;32;19964;-77
2022/03/02 00:11:03;;;;;;;;;;;;;;;0.95;56.19;98909.63;4416877;32;20028;-77
2022/03/02 00:13:30;;;;;;;;;;;;;;;1.43;54.27;98911.75;4417328;32;20339;-77
2022/03/02 00:15:57;;;;;;;;;;;;;;;1.04;55.58;98914.78;4416710;32;19960;-77
2022/03/02 00:18:23;;;;;;;;;;;;;;;1.37;55.38;98908.28;4416693;32;19996;-77
2022/03/02 00:20:50;;;;;;;;;;;;;;;1.22;55.68;98916.66;4416560;32;20037;-77
2022/03/02 00:23:17;;;;;;;;;;;;;;;0.79;56.60;98916.25;4416395;32;20382;-77
2022/03/02 00:25:44;;;;;;;;;;;;;;;0.34;57.57;98918.31;4416964;32;19946;-77
2022/03/02 00:28:15;;;;;;;;;;;;;;;0.58;57.25;98914.34;4416757;32;19978;-77
2022/03/02 00:30:42;;;;;;;;;;;;;;;0.52;57.33;98915.97;4416537;32;19973;-77
2022/03/02 00:33:08;;;;;;;;;;;;;;;0.90;56.28;98921.44;4416707;32;19953;-77
2022/03/02 00:35:35;;;;;;;;;;;;;;;0.35;57.99;98923.41;4416899;32;20591;-77
2022/03/02 00:38:03;;;;;;;;;;;;;;;0.61;57.36;98915.22;4402772;32;19950;-77
2022/03/02 00:40:30;;;;;;;;;;;;;;;0.71;57.48;98917.00;4416440;32;20373;-77
2022/03/02 00:42:57;;;;;;;;;;;;;;;0.82;56.59;98912.88;4416572;32;20484;-77
2022/03/02 00:45:25;;;;;;;;;;;;;;;0.00;58.93;98910.28;4425274;27;20577;-77
2022/03/02 00:47:52;;;;;;;;;;;;;;;-0.23;60.21;98904.88;4416119;32;20029;-77
2022/03/02 00:50:19;;;;;;;;;;;;;;;0.54;58.26;98901.63;4415523;32;19996;-77
2022/03/02 00:52:46;;;;;;;;;;;;;;;0.29;58.43;98891.16;4415454;32;19997;-77
2022/03/02 00:55:13;;;;;;;;;;;;;;;0.24;58.74;98890.28;4415266;32;19996;-77
2022/03/02 00:57:40;;;;;;;;;;;;;;;0.16;59.61;98883.41;4415343;32;19958;-77
2022/03/02 01:00:07;;;;;;;;;;;;;;;0.25;58.77;98886.91;4415539;32;19987;-77
2022/03/02 01:02:34;;;;;;;;;;;;;;;0.15;58.90;98885.09;4403327;32;20014;-77
2022/03/02 01:05:01;;;;;;;;;;;;;;;-0.07;59.56;98883.97;4628421;27;20005;-77
2022/03/02 01:07:49;;;;;;;;;;;;;;;-0.01;59.86;98885.72;4416363;32;19994;-77
2022/03/02 01:10:16;;;;;;;;;;;;;;;-0.19;61.12;98875.34;4416055;32;20028;-77
2022/03/02 01:16:06;;;;;;;;;;;;;;;0.01;59.93;98866.31;4416153;32;20004;-77
2022/03/02 01:18:33;;;;;;;;;;;;;;;0.27;58.74;98869.16;4415792;32;20017;-77
2022/03/02 01:20:59;;;;;;;;;;;;;;;0.34;58.96;98860.78;4401894;32;20060;-77
2022/03/02 01:23:26;;;;;;;;;;;;;;;0.22;59.57;98855.56;4415606;32;19990;-77
2022/03/02 01:28:28;;;;;;;;;;;;;;;0.02;59.79;98845.19;4543561;27;19989;-77
2022/03/02 01:30:55;;;;;;;;;;;;;;;0.13;59.68;98835.16;4415669;32;19964;-77
2022/03/02 01:33:21;;;;;;;;;;;;;;;0.03;59.72;98844.34;4415241;32;19969;-77
2022/03/02 01:35:48;;;;;;;;;;;;;;;-0.42;61.19;98831.94;4416109;32;19954;-77
2022/03/02 01:38:15;;;;;;;;;;;;;;;-0.57;62.23;98834.25;4402733;32;20008;-77
2022/03/02 01:40:43;;;;;;;;;;;;;;;-0.50;61.72;98834.37;4416292;32;19973;-77
2022/03/02 01:43:11;;;;;;;;;;;;;;;-0.37;60.87;98823.56;4416767;32;19950;-77
2022/03/02 01:45:38;;;;;;;;;;;;;;;-0.54;60.90;98829.22;4629294;27;19982;-77
2022/03/02 01:48:05;;;;;;;;;;;;;;;-0.48;60.65;98825.09;4416563;32;20245;-77
2022/03/02 01:50:32;;;;;;;;;;;;;;;-0.08;59.96;98818.84;4416127;32;20050;-77
2022/03/02 01:52:59;;;;;;;;;;;;;;;0.06;58.88;98816.47;4403076;32;19969;-77
2022/03/02 01:55:26;;;;;;;;;;;;;;;-0.55;60.83;98815.69;4553455;27;19966;-77
2022/03/02 01:57:52;;;;;;;;;;;;;;;-0.35;60.63;98819.34;4402133;32;19985;-77
2022/03/02 02:00:21;;;;;;;;;;;;;;;-0.91;62.16;98813.50;4415085;32;19991;-77
2022/03/02 02:02:48;;;;;;;;;;;;;;;-1.27;64.61;98807.03;4415442;32;20000;-77
2022/03/02 02:05:15;;;;;;;;;;;;;;;-0.91;63.74;98816.03;4643672;27;20007;-77
2022/03/02 02:07:42;;;;;;;;;;;;;;;-0.63;61.66;98804.63;4415238;32;20629;-77
2022/03/02 02:10:09;;;;;;;;;;;;;;;-0.52;60.88;98804.75;4414896;32;19946;-77
2022/03/02 02:12:36;;;;;;;;;;;;;;;-0.87;61.03;98798.34;4400425;32;19949;-77
2022/03/02 02:17:38;;;;;;;;;;;;;;;-1.31;62.26;98802.72;4479510;27;20053;-77
2022/03/02 02:20:06;;;;;;;;;;;;;;;-1.41;62.73;98797.50;4414037;32;19964;-77
2022/03/02 02:22:37;;;;;;;;;;;;;;;-1.12;62.07;98800.50;4413696;32;20033;-77
2022/03/02 02:27:34;;;;;;;;;;;;;;;-1.39;63.38;98800.91;4412329;32;20405;-77
2022/03/02 02:30:01;;;;;;;;;;;;;;;-1.58;64.22;98799.75;4400247;32;19963;-77
2022/03/02 02:32:28;;;;;;;;;;;;;;;-1.35;63.80;98808.59;4401127;32;20326;-77
2022/03/02 02:37:37;;;;;;;;;;;;;;;-1.46;63.45;98800.81;4553363;27;19978;-77
2022/03/02 02:40:09;;;;;;;;;;;;;;;-1.57;63.85;98806.50;4413280;32;19960;-77
2022/03/02 02:42:36;;;;;;;;;;;;;;;-1.12;61.92;98805.56;4412972;32;20053;-77
2022/03/02 02:47:44;;;;;;;;;;;;;;;-1.18;61.65;98802.09;4491289;27;20033;-77
2022/03/02 02:50:16;;;;;;;;;;;;;;;-1.11;61.17;98807.25;4412344;32;20320;-77
2022/03/02 02:52:43;;;;;;;;;;;;;;;-1.64;63.28;98797.09;4413005;32;19969;-77
2022/03/02 02:55:13;;;;;;;;;;;;;;;-1.50;62.83;98795.66;4477264;27;21003;-77
2022/03/02 02:57:40;;;;;;;;;;;;;;;-1.60;62.73;98787.03;4398867;32;19954;-77
2022/03/02 03:00:08;;;;;;;;;;;;;;;-1.73;63.44;98792.72;4399350;32;19977;-77
2022/03/02 03:02:35;;;;;;;;;;;;;;;-1.93;63.99;98799.09;4413284;32;19974;-77
2022/03/02 03:10:43;;;;;;;;;;;;;;;-1.76;63.80;98797.75;4412673;32;20459;-77
2022/03/02 03:19:00;;;;;;;;;;;;;;;-1.85;63.82;98793.34;4410496;32;19989;-77
2022/03/02 03:21:27;;;;;;;;;;;;;;;-1.67;63.45;98795.38;4399097;32;19987;-77
2022/03/02 03:23:53;;;;;;;;;;;;;;;-1.51;62.24;98802.41;4413758;32;20005;-77
2022/03/02 03:26:20;;;;;;;;;;;;;;;-2.20;64.52;98796.91;4731866;27;19987;-77
2022/03/02 03:37:27;;;;;;;;;;;;;;;-1.98;63.06;98796.50;5090964;27;20012;-77
2022/03/02 03:39:54;;;;;;;;;;;;;;;-1.98;63.22;98796.50;4414164;32;19994;-77
2022/03/02 03:42:23;;;;;;;;;;;;;;;-1.83;63.21;98790.84;4401361;32;19969;-77
2022/03/02 03:44:50;;;;;;;;;;;;;;;-1.58;62.15;98782.03;4388999;32;19965;-77
2022/03/02 03:47:17;;;;;;;;;;;;;;;-1.96;63.82;98779.66;5028407;27;19973;-77
2022/03/02 03:49:44;;;;;;;;;;;;;;;-1.97;64.43;98779.63;4414235;32;20038;-77
2022/03/02 03:52:11;;;;;;;;;;;;;;;-2.04;63.82;98778.66;4414507;32;19984;-77
2022/03/02 03:54:38;;;;;;;;;;;;;;;-1.93;63.71;98776.34;4414385;32;20003;-77
2022/03/02 03:57:05;;;;;;;;;;;;;;;-1.50;62.29;98762.75;4766313;27;19974;-77
2022/03/02 03:59:32;;;;;;;;;;;;;;;-1.19;60.69;98767.47;4414570;32;20047;-77
2022/03/02 04:01:59;;;;;;;;;;;;;;;-0.79;58.41;98765.53;4415181;32;20021;-77
2022/03/02 04:04:26;;;;;;;;;;;;;;;-1.39;60.19;98768.00;4415577;32;19985;-77
2022/03/02 04:06:56;;;;;;;;;;;;;;;-1.39;60.39;98766.31;4903706;27;20071;31
2022/03/02 04:18:26;;;;;;;;;;;;;;;-1.42;62.03;98767.94;4677989;27;19954;-77
2022/03/02 04:20:53;;;;;;;;;;;;;;;-1.30;61.49;98765.59;4399066;32;20021;-77
2022/03/02 04:23:21;;;;;;;;;;;;;;;-1.73;62.32;98757.31;4399814;32;19987;-77
2022/03/02 04:28:23;;;;;;;;;;;;;;;-1.31;61.16;98758.84;4847524;27;20024;-77
2022/03/02 04:30:50;;;;;;;;;;;;;;;-1.18;60.34;98763.25;4414338;32;19990;-77
2022/03/02 04:33:17;;;;;;;;;;;;;;;-1.48;61.09;98761.97;4414662;32;19982;-77
2022/03/02 04:35:44;;;;;;;;;;;;;;;-1.36;61.22;98760.47;4413606;32;20023;-77
2022/03/02 04:38:10;;;;;;;;;;;;;;;-1.47;61.11;98756.06;4414753;32;20429;-77
2022/03/02 04:40:37;;;;;;;;;;;;;;;-1.54;61.73;98748.34;4414535;32;19998;-77
2022/03/02 04:43:04;;;;;;;;;;;;;;;-1.77;61.91;98758.94;4414536;32;20037;-77
2022/03/02 04:45:31;;;;;;;;;;;;;;;-2.13;62.74;98755.72;4414917;32;20044;-77
2022/03/02 04:47:58;;;;;;;;;;;;;;;-2.65;63.86;98755.56;4414718;32;19990;-77
2022/03/02 04:50:25;;;;;;;;;;;;;;;-2.78;64.84;98750.22;4414424;32;19981;-77
2022/03/02 04:52:53;;;;;;;;;;;;;;;-2.98;65.52;98745.63;4414978;32;20075;-77
2022/03/02 04:55:20;;;;;;;;;;;;;;;-2.88;65.07;98745.78;4400491;32;20312;-77
2022/03/02 05:03:04;;;;;;;;;;;;;;;-2.48;63.07;98742.41;4378981;30;19982;-77
2022/03/02 05:05:32;;;;;;;;;;;;;;;-2.18;61.86;98743.00;4400917;32;19976;-77
2022/03/02 05:19:40;;;;;;;;;;;;;;;-3.25;66.76;98729.84;4285189;30;19986;-77
2022/03/02 05:22:07;;;;;;;;;;;;;;;-3.24;68.47;98731.53;4413841;32;20321;-77
2022/03/02 05:24:34;;;;;;;;;;;;;;;-2.63;66.81;98727.81;4413581;32;20316;-77
2022/03/02 05:27:00;;;;;;;;;;;;;;;-2.69;67.11;98728.53;4422529;27;19949;-77
2022/03/02 05:29:27;;;;;;;;;;;;;;;-2.32;65.36;98729.28;4414501;32;19995;-77
2022/03/02 05:31:54;;;;;;;;;;;;;;;-2.71;66.78;98732.69;4414679;32;20033;-77
2022/03/02 05:34:21;;;;;;;;;;;;;;;-2.14;64.87;98734.66;4415097;32;19984;-77
2022/03/02 05:39:30;;;;;;;;;;;;;;;-2.45;65.79;98734.88;4900654;26;19985;-77
2022/03/02 05:41:57;;;;;;;;;;;;;;;-2.30;65.57;98737.72;4415261;32;20028;-77
2022/03/02 05:44:24;;;;;;;;;;;;;;;-2.07;64.99;98733.09;4415538;32;19989;-77
2022/03/02 05:49:26;;;;;;;;;;;;;;;-1.54;62.58;98728.97;4963741;27;20080;-77
2022/03/02 05:51:53;;;;;;;;;;;;;;;-1.38;62.18;98727.53;4416081;32;19973;-77
2022/03/02 05:54:19;;;;;;;;;;;;;;;-0.94;60.17;98732.41;4415226;32;20004;-77
2022/03/02 05:59:28;;;;;;;;;;;;;;;-0.80;59.28;98732.56;4883696;26;19996;-77
2022/03/02 06:01:55;;;;;;;;;;;;;;;-0.81;59.36;98731.72;4418009;32;20033;-77
2022/03/02 06:04:22;;;;;;;;;;;;;;;-0.58;58.39;98739.62;4418658;32;19984;-77
2022/03/02 06:23:54;;;;;;;;;;;;;;;2.72;48.17;98744.19;4408464;32;19997;-78
2022/03/02 06:26:33;;;;;;;;;;;;;;;3.54;46.37;98738.09;4408788;32;20001;-78
2022/03/02 06:29:03;;;;;;;;;;;;;;;4.17;44.54;98746.28;4408352;32;19945;-79
2022/03/02 06:31:31;;;;;;;;;;;;;;;4.93;42.92;98738.03;4408805;32;19954;-78
2022/03/02 06:33:58;;;;;;;;;;;;;;;6.14;40.94;98736.66;4408609;32;19991;-78
2022/03/02 06:36:25;;;;;;;;;;;;;;;6.44;39.58;98737.94;4408849;32;19950;-78
2022/03/02 06:38:51;;;;;;;;;;;;;;;7.06;37.49;98741.19;4408489;32;19955;-78
2022/03/02 06:41:24;;;;;;;;;;;;;;;7.48;35.99;98737.84;4408412;32;20012;-78
2022/03/02 06:43:52;;;;;;;;;;;;;;;7.02;35.96;98736.97;4395706;32;20007;-78
2022/03/02 06:46:31;;;;;;;;;;;;;;;7.53;35.90;98738.59;4402852;32;19950;-79
2022/03/02 06:49:08;;;;;;;;;;;;;;;7.90;35.33;98735.28;4398053;32;20297;-78
2022/03/02 06:51:34;;;;;;;;;;;;;;;8.18;34.86;98734.69;4394950;32;20037;-78
2022/03/02 06:54:02;;;;;;;;;;;;;;;8.80;33.17;98732.41;4394545;32;20037;-79
2022/03/02 06:56:29;;;;;;;;;;;;;;;9.75;32.26;98741.88;4381168;32;19978;-78
2022/03/02 06:58:56;;;;;;;;;;;;;;;9.99;31.38;98726.59;4383555;32;20717;-78
2022/03/02 07:01:28;;;;;;;;;;;;;;;10.82;30.10;98728.31;4383256;32;19982;-81
2022/03/02 07:03:57;;;;;;;;;;;;;;;11.00;28.93;98719.13;4396050;32;20031;-78
2022/03/02 07:06:24;;;;;;;;;;;;;;;12.14;28.00;98721.94;4396307;32;19987;-80
2022/03/02 07:08:51;;;;;;;;;;;;;;;11.72;27.43;98725.19;4395738;32;19984;-78
2022/03/02 07:11:18;;;;;;;;;;;;;;;12.15;27.23;98721.03;4395924;32;19996;-79
2022/03/02 07:13:45;;;;;;;;;;;;;;;11.49;28.14;98714.84;4396285;32;20019;-79
2022/03/02 07:16:12;;;;;;;;;;;;;;;11.78;28.28;98726.69;4396208;32;19965;-78
2022/03/02 07:18:39;;;;;;;;;;;;;;;12.11;27.86;98724.59;4397652;32;19998;-79
2022/03/02 07:21:10;;;;;;;;;;;;;;;13.32;26.63;98720.59;4396733;32;20042;-78
2022/03/02 07:23:41;;;;;;;;;;;;;;;13.43;26.00;98725.31;4397538;32;19977;-78
2022/03/02 07:26:08;;;;;;;;;;;;;;;13.13;26.83;98727.44;4395801;32;20035;-78
2022/03/02 07:28:37;;;;;;;;;;;;;;;14.05;25.85;98722.50;4396612;32;20272;-78
2022/03/02 07:31:04;;;;;;;;;;;;;;;14.08;25.98;98724.09;4397079;32;19994;-78
2022/03/02 07:33:30;;;;;;;;;;;;;;;13.95;24.92;98728.19;4397250;32;19992;-78
2022/03/02 07:35:57;;;;;;;;;;;;;;;14.23;24.93;98720.78;4396522;32;19984;-78
2022/03/02 07:38:24;;;;;;;;;;;;;;;14.67;23.98;98712.66;4395706;32;20037;-78
2022/03/02 07:40:52;;;;;;;;;;;;;;;13.70;23.82;98710.28;4382369;32;20138;-78
2022/03/02 07:43:19;;;;;;;;;;;;;;;12.99;24.87;98713.31;4382754;32;20339;-78
2022/03/02 07:45:46;;;;;;;;;;;;;;;13.69;23.59;98713.78;4395734;32;20048;-78
2022/03/02 07:48:14;;;;;;;;;;;;;;;13.68;23.65;98712.09;4395946;32;19988;-78
2022/03/02 07:50:40;;;;;;;;;;;;;;;13.06;23.61;98710.44;4395920;32;20392;-78
2022/03/02 07:53:13;;;;;;;;;;;;;;;13.39;24.22;98709.03;4395902;32;20020;-78
2022/03/02 07:55:40;;;;;;;;;;;;;;;14.10;22.87;98704.13;4381275;32;20080;-77
2022/03/02 07:58:07;;;;;;;;;;;;;;;13.04;23.22;98708.75;4381166;32;20035;-78
2022/03/02 08:00:33;;;;;;;;;;;;;;;13.66;22.17;98703.56;4384315;32;20033;-78
2022/03/02 08:03:01;;;;;;;;;;;;;;;12.67;24.00;98698.25;4397552;32;19982;-78
2022/03/02 08:05:28;;;;;;;;;;;;;;;13.26;23.50;98697.53;4398667;32;19960;-78
2022/03/02 08:07:55;;;;;;;;;;;;;;;13.32;23.09;98692.09;4383139;32;19970;-78
2022/03/02 08:10:22;;;;;;;;;;;;;;;14.12;22.57;98691.91;4395956;32;20029;-78
2022/03/02 08:12:49;;;;;;;;;;;;;;;12.44;24.21;98684.50;4396809;32;19970;-78
2022/03/02 08:15:15;;;;;;;;;;;;;;;10.23;27.36;98689.78;4383703;32;20481;-78
2022/03/02 08:17:42;;;;;;;;;;;;;;;10.84;26.93;98679.19;4396871;32;20009;-77
2022/03/02 08:20:10;;;;;;;;;;;;;;;11.33;26.07;98675.78;4397380;32;20024;-78
2022/03/02 08:22:44;;;;;;;;;;;;;;;12.21;25.59;98683.72;4397167;32;19950;-78
2022/03/02 08:25:11;;;;;;;;;;;;;;;11.36;26.03;98677.41;4397113;32;19950;-78
2022/03/02 08:27:39;;;;;;;;;;;;;;;10.96;27.08;98668.50;4383200;32;20041;-77
2022/03/02 08:30:06;;;;;;;;;;;;;;;11.57;25.88;98671.44;4395852;32;20444;-77
2022/03/02 08:32:38;;;;;;;;;;;;;;;12.25;25.13;98674.94;4396411;32;19994;-77
2022/03/02 08:35:06;;;;;;;;;;;;;;;12.76;24.67;98672.00;4382596;32;19988;-77
2022/03/02 08:37:33;;;;;;;;;;;;;;;12.64;24.88;98667.31;4397822;32;19958;-77
2022/03/02 08:39:59;;;;;;;;;;;;;;;12.01;25.16;98676.72;4383336;32;20035;-77
2022/03/02 08:42:26;;;;;;;;;;;;;;;11.99;24.72;98673.34;4396198;32;20449;-77
2022/03/02 08:44:54;;;;;;;;;;;;;;;11.75;25.45;98657.00;4395839;32;19974;-76
2022/03/02 08:47:23;;;;;;;;;;;;;;;11.44;26.21;98657.31;4395902;32;20022;-77
2022/03/02 08:49:50;;;;;;;;;;;;;;;10.57;25.97;98647.44;4395685;32;20288;-77
2022/03/02 08:52:19;;;;;;;;;;;;;;;10.55;26.52;98649.22;4396126;32;20044;-76
2022/03/02 08:54:47;;;;;;;;;;;;;;;10.46;27.07;98652.94;4381664;32;20379;-77
2022/03/02 08:57:16;;;;;;;;;;;;;;;11.21;25.76;98645.22;4396010;32;19970;-77
2022/03/02 08:59:43;;;;;;;;;;;;;;;11.08;26.41;98636.22;4381770;32;19986;-77
2022/03/02 09:02:11;;;;;;;;;;;;;;;11.21;25.50;98638.31;4384309;32;19999;-77
2022/03/02 09:04:38;;;;;;;;;;;;;;;10.19;26.19;98639.16;4396279;32;20321;-77
2022/03/02 09:07:05;;;;;;;;;;;;;;;8.92;27.66;98637.72;4396947;32;20037;-77
2022/03/02 09:09:32;;;;;;;;;;;;;;;8.64;27.70;98629.87;4395643;32;20531;-77
2022/03/02 09:11:58;;;;;;;;;;;;;;;9.66;27.52;98635.63;4395676;32;20012;-77
2022/03/02 09:14:25;;;;;;;;;;;;;;;9.82;26.35;98630.00;4395897;32;20026;-77
2022/03/02 09:16:53;;;;;;;;;;;;;;;9.23;27.55;98635.16;4395598;32;20004;-77
2022/03/02 09:19:20;;;;;;;;;;;;;;;9.76;27.33;98629.31;4396128;32;19982;-78
2022/03/02 09:21:47;;;;;;;;;;;;;;;8.17;30.37;98635.31;4382162;32;19998;-78
2022/03/02 09:24:13;;;;;;;;;;;;;;;8.30;30.09;98632.44;4395302;32;20487;-77
2022/03/02 09:26:40;;;;;;;;;;;;;;;9.38;27.71;98636.47;4382011;32;19956;-77
2022/03/02 09:29:07;;;;;;;;;;;;;;;9.18;27.34;98629.28;4397030;32;20317;-78
2022/03/02 09:31:35;;;;;;;;;;;;;;;9.28;28.03;98630.72;4397431;32;20358;-77
2022/03/02 09:34:03;;;;;;;;;;;;;;;8.52;28.94;98624.22;4401730;32;20722;-78
2022/03/02 09:36:30;;;;;;;;;;;;;;;9.49;27.66;98621.53;4395022;32;19985;-77
2022/03/02 09:38:56;;;;;;;;;;;;;;;10.12;27.54;98617.06;4382728;32;20034;-77
2022/03/02 09:41:25;;;;;;;;;;;;;;;10.13;26.76;98611.00;4395831;32;20340;-78
2022/03/02 09:43:53;;;;;;;;;;;;;;;9.83;26.82;98613.63;4395428;32;20060;-78
2022/03/02 09:46:20;;;;;;;;;;;;;;;8.95;28.14;98614.50;4382360;32;19997;-78
2022/03/02 09:48:47;;;;;;;;;;;;;;;9.19;27.58;98610.38;4383404;32;19974;-78
2022/03/02 09:51:23;;;;;;;;;;;;;;;9.70;27.05;98609.75;4384746;32;19998;-77
2022/03/02 09:53:53;;;;;;;;;;;;;;;8.04;28.20;98607.31;4395315;32;20012;-77
2022/03/02 09:56:22;;;;;;;;;;;;;;;7.44;28.62;98596.69;4395615;32;19990;-78
2022/03/02 09:58:49;;;;;;;;;;;;;;;8.87;29.01;98597.56;4395139;32;20002;-78
2022/03/02 10:01:16;;;;;;;;;;;;;;;9.51;28.02;98593.16;4395339;32;20000;-77
2022/03/02 10:03:47;;;;;;;;;;;;;;;9.90;26.31;98593.69;4395417;32;19989;-78
2022/03/02 10:06:14;;;;;;;;;;;;;;;10.25;25.97;98594.31;4394963;32;19970;-78
2022/03/02 10:08:45;;;;;;;;;;;;;;;10.33;25.54;98577.69;4382183;32;20012;-78
2022/03/02 10:11:12;;;;;;;;;;;;;;;10.41;25.45;98583.44;4395680;32;20776;-78
2022/03/02 10:13:39;;;;;;;;;;;;;;;9.82;26.63;98565.56;4381780;32;20044;-78
2022/03/02 10:16:06;;;;;;;;;;;;;;;9.06;27.33;98578.16;4396981;32;19973;-78
2022/03/02 10:18:34;;;;;;;;;;;;;;;8.29;28.17;98575.87;4394627;32;20305;-78
2022/03/02 10:21:01;;;;;;;;;;;;;;;8.72;28.84;98579.94;4395391;32;19982;-77
2022/03/02 10:23:32;;;;;;;;;;;;;;;8.57;28.05;98573.50;4402471;32;19977;-77
2022/03/02 10:26:06;;;;;;;;;;;;;;;8.86;27.26;98578.69;4398495;32;20077;-78
2022/03/02 10:28:42;;;;;;;;;;;;;;;9.85;26.10;98575.78;4381508;32;19985;-78
2022/03/02 10:31:12;;;;;;;;;;;;;;;9.28;27.29;98566.34;4395175;32;20590;-77
2022/03/02 10:33:41;;;;;;;;;;;;;;;8.51;27.15;98563.38;4396014;32;20023;-78
2022/03/02 10:36:09;;;;;;;;;;;;;;;9.29;27.10;98567.19;4382881;32;20301;-78
2022/03/02 10:38:43;;;;;;;;;;;;;;;9.25;26.83;98563.00;4396266;32;19981;-78
2022/03/02 10:41:10;;;;;;;;;;;;;;;9.81;26.46;98555.31;4394484;32;19986;-78
2022/03/02 10:43:46;;;;;;;;;;;;;;;10.03;26.73;98558.03;4394651;32;20029;-78
2022/03/02 10:46:12;;;;;;;;;;;;;;;10.35;25.28;98547.53;4395152;32;20041;-78
2022/03/02 10:48:47;;;;;;;;;;;;;;;11.18;24.75;98554.94;4382420;32;20002;-78
2022/03/02 10:51:14;;;;;;;;;;;;;;;11.59;24.75;98555.97;4399703;32;20036;-78
2022/03/02 10:53:41;;;;;;;;;;;;;;;9.54;25.95;98546.69;4399178;32;20041;-77
2022/03/02 10:56:08;;;;;;;;;;;;;;;9.93;26.18;98547.19;4396705;32;20033;-77
2022/03/02 10:58:35;;;;;;;;;;;;;;;10.49;26.43;98541.91;4401163;32;19988;-78
2022/03/02 11:01:02;;;;;;;;;;;;;;;9.45;26.31;98540.06;4369164;32;20465;-77
2022/03/02 11:03:35;;;;;;;;;;;;;;;9.55;27.74;98538.91;4394553;32;19974;-78
2022/03/02 11:06:02;;;;;;;;;;;;;;;9.88;27.41;98538.75;4396774;32;19961;-78
2022/03/02 11:08:32;;;;;;;;;;;;;;;10.72;26.21;98534.19;4396839;32;20534;-78
2022/03/02 11:10:59;;;;;;;;;;;;;;;11.48;25.14;98533.12;4394955;32;19986;-78
2022/03/02 11:13:25;;;;;;;;;;;;;;;11.58;25.36;98528.41;4385270;32;19960;-77
2022/03/02 11:15:53;;;;;;;;;;;;;;;11.56;25.69;98533.62;4390173;32;19982;-77
2022/03/02 11:18:40;;;;;;;;;;;;;;;11.59;26.25;98532.69;4404196;32;19945;-77
2022/03/02 11:21:14;;;;;;;;;;;;;;;10.86;27.08;98532.88;4403823;32;20002;-77
2022/03/02 11:23:42;;;;;;;;;;;;;;;11.16;25.82;98521.38;4402235;32;20065;-77
2022/03/02 11:26:11;;;;;;;;;;;;;;;10.35;27.24;98519.16;4390839;32;19973;-77
2022/03/02 11:28:46;;;;;;;;;;;;;;;10.07;28.74;98510.62;4388673;32;19968;-76
2022/03/02 11:31:17;;;;;;;;;;;;;;;10.35;30.14;98518.31;4389075;32;19966;-77
2022/03/02 11:33:44;;;;;;;;;;;;;;;9.65;28.78;98513.69;4402333;32;19946;-77
2022/03/02 11:36:11;;;;;;;;;;;;;;;10.33;29.18;98513.22;4402844;32;19988;-77
2022/03/02 11:38:39;;;;;;;;;;;;;;;10.61;29.34;98519.97;4402570;32;19980;-77
2022/03/02 11:41:06;;;;;;;;;;;;;;;10.97;28.12;98515.25;4402515;32;20033;-76
2022/03/02 11:43:33;;;;;;;;;;;;;;;11.03;27.49;98509.84;4401757;32;19964;-76
2022/03/02 11:46:01;;;;;;;;;;;;;;;11.10;28.18;98507.87;4404079;32;19974;-77
2022/03/02 11:48:30;;;;;;;;;;;;;;;10.94;28.36;98502.44;4404379;32;20376;-77
2022/03/02 11:51:04;;;;;;;;;;;;;;;11.29;28.17;98506.28;4391447;32;20037;-77
2022/03/02 11:53:35;;;;;;;;;;;;;;;11.48;27.86;98499.53;4404759;32;19982;-78
2022/03/02 11:56:02;;;;;;;;;;;;;;;11.59;27.62;98496.50;4406285;32;19960;-77
2022/03/02 11:58:49;;;;;;;;;;;;;;;12.26;26.77;98493.78;4404387;32;19954;-77
2022/03/02 12:01:51;;;;;;;;;;;;;;;12.19;26.48;98487.16;4404079;32;20024;-77
2022/03/02 12:04:28;;;;;;;;;;;;;;;11.65;27.71;98491.09;4404436;32;20658;-77
2022/03/02 12:06:55;;;;;;;;;;;;;;;11.23;27.98;98480.69;4404857;32;19950;-77
2022/03/02 12:09:37;;;;;;;;;;;;;;;10.99;28.19;98482.47;4405517;32;19954;-78
2022/03/02 12:12:20;;;;;;;;;;;;;;;11.62;28.33;98465.38;4407047;32;20037;-77
2022/03/02 12:14:52;;;;;;;;;;;;;;;9.45;30.56;98467.13;4406635;32;19950;-77
2022/03/02 12:17:28;;;;;;;;;;;;;;;9.70;31.83;98465.47;4406747;32;20065;-77
2022/03/02 12:19:59;;;;;;;;;;;;;;;8.50;31.99;98471.66;4392782;32;19958;-77
2022/03/02 12:22:30;;;;;;;;;;;;;;;9.20;30.86;98461.91;4406922;32;19957;-77
2022/03/02 12:25:00;;;;;;;;;;;;;;;9.73;30.57;98465.34;4406549;32;19981;-77
2022/03/02 12:27:27;;;;;;;;;;;;;;;9.45;30.94;98461.97;4406926;32;19972;-77
2022/03/02 12:29:56;;;;;;;;;;;;;;;9.18;31.88;98461.09;4408281;32;20082;-77
2022/03/02 12:32:25;;;;;;;;;;;;;;;8.88;32.28;98458.56;4407890;32;19993;-77
2022/03/02 12:34:52;;;;;;;;;;;;;;;8.67;32.16;98457.44;4406994;32;19986;-77
2022/03/02 12:37:20;;;;;;;;;;;;;;;8.88;31.95;98457.72;4406819;32;20569;-77
2022/03/02 12:39:49;;;;;;;;;;;;;;;8.64;31.86;98459.28;4406957;32;19954;-77
2022/03/02 12:42:16;;;;;;;;;;;;;;;9.69;31.37;98453.47;4408173;32;20002;-77
2022/03/02 12:44:44;;;;;;;;;;;;;;;9.11;31.82;98457.03;4407520;32;19979;-77
2022/03/02 12:47:15;;;;;;;;;;;;;;;8.72;31.50;98456.44;4407246;32;19942;-78
2022/03/02 12:49:45;;;;;;;;;;;;;;;9.64;30.84;98462.22;4405549;32;19986;-77
2022/03/02 12:52:12;;;;;;;;;;;;;;;10.70;28.48;98458.56;4405541;32;19985;-78
2022/03/02 12:54:39;;;;;;;;;;;;;;;10.80;29.27;98453.91;4404345;32;19950;-77
2022/03/02 12:57:07;;;;;;;;;;;;;;;10.90;28.20;98452.66;4390860;32;19985;-77
2022/03/02 12:59:35;;;;;;;;;;;;;;;10.20;28.55;98446.59;4405295;32;19994;-78
2022/03/02 13:02:03;;;;;;;;;;;;;;;9.22;30.52;98449.81;4392499;32;20005;-77
2022/03/02 13:04:33;;;;;;;;;;;;;;;9.81;30.02;98435.03;4390698;32;19973;-77
2022/03/02 13:07:02;;;;;;;;;;;;;;;10.47;28.92;98440.50;4390052;32;20025;-77
2022/03/02 13:09:32;;;;;;;;;;;;;;;10.84;27.25;98437.38;4390711;32;20018;-77
2022/03/02 13:12:42;;;;;;;20.15;8.18;;;;;;;10.73;27.88;98442.12;4559858;31;146204;-78
2022/03/02 13:15:24;;;;;;;18.00;8.50;;;;;;;10.73;27.88;98442.12;4558265;31;20059;-79
2022/03/02 13:18:09;;;;;;;16.65;8.35;;;;;;;10.08;28.78;98429.81;4536666;31;20114;-79
2022/03/02 13:20:39;;;;;;;18.35;8.13;;;;;;;9.97;28.85;98425.03;4544069;31;20091;-79
2022/03/02 13:23:17;;;;;;;20.88;9.40;;;;;;;10.29;28.50;98428.25;4542959;31;20447;-78
2022/03/02 13:25:58;;;;;;;21.62;10.05;;;;;;;9.78;29.58;98423.94;4542971;31;20135;-79
2022/03/02 13:28:27;;;;;;;18.60;8.95;;;;;;;9.56;30.22;98419.50;4530531;31;20112;-79
2022/03/02 13:31:16;;;;;;;20.30;9.50;;;;;;;9.82;28.74;98407.53;4543370;31;20139;-79
2022/03/02 13:33:56;;;;;;;18.95;8.63;;;;;;;9.61;29.49;98411.66;4530117;31;20083;-78
2022/03/02 13:36:37;;;;;;;19.42;8.27;;;;;;;9.32;29.58;98402.28;4529383;31;20084;-77
2022/03/02 13:39:29;;;;;;;17.75;8.88;;;;;;;10.07;28.19;98399.78;4543892;31;20102;-79
2022/03/02 13:42:01;;;;;;;19.33;9.05;;;;;;;9.94;28.12;98401.94;4543816;31;20055;-79
2022/03/02 13:44:36;;;;;;;18.67;7.93;;;;;;;9.98;27.28;98403.50;4543731;31;20079;-78
2022/03/02 13:47:07;;;;;;;21.25;9.00;;;;;;;9.90;27.72;98402.13;4543466;31;20119;-78
2022/03/02 13:49:59;;;;;;;20.23;9.35;;;;;;;9.78;28.50;98403.34;4542985;31;20106;-78
2022/03/02 13:52:26;;;;;;;20.75;9.05;;;;;;;10.14;27.67;98403.81;4543322;31;20106;-79
2022/03/02 13:54:54;;;;;;;;;;;;;;;9.89;27.90;98398.69;4543381;31;20154;-79
2022/03/02 13:57:23;;;;;;;18.07;7.93;;;;;;;9.71;27.58;98394.16;4542948;31;19948;-79
2022/03/02 14:00:20;;;;;;;18.45;8.70;;;;;;;10.09;26.96;98388.50;4543430;31;20159;-78
2022/03/02 14:02:50;;;;;;;21.87;9.85;;;;;;;10.10;28.26;98385.06;4537185;31;20055;-80
2022/03/02 14:05:18;;;;;;;19.50;8.70;;;;;;;10.09;27.67;98380.75;4541152;31;20048;-79
2022/03/02 14:07:46;;;;;;;21.58;9.50;;;;;;;9.95;29.22;98384.72;4540622;31;20063;-77
2022/03/02 14:10:16;;;;;;;20.75;9.93;;;;;;;9.70;28.41;98382.16;4542988;31;20060;-79
2022/03/02 14:12:59;;;;;;;21.52;10.25;;;;;;;9.91;28.05;98376.28;4539622;31;20100;-77
2022/03/02 14:15:30;;;;;;;54.63;9.98;;;;;;;10.62;27.95;98375.41;4524067;31;20068;-77
2022/03/02 14:17:59;;;;;;;21.30;9.85;;;;;;;10.61;26.70;98368.59;4537423;31;20107;-77
2022/03/02 14:20:34;;;;;;;24.02;10.10;;;;;;;10.36;27.52;98368.66;4534862;31;20084;-78
2022/03/02 14:23:07;;;;;;;22.55;10.23;;;;;;;9.78;28.70;98373.28;4528342;31;20087;-78